首页
METAR-TAF:

METAR-TAF

机场 :

Tri-Cities Regional Airport

布里斯托尔 / 约翰逊城 / 金斯波特, 田纳西州, 美国

纬度: 36-28-47N, 经度: 082-23-56W, 海拔: 463米

当前天气观测

该预报发布于19分钟前的19:53 UTC
风速4节,风向西南
温度 16°C
湿度 36%
气压 1014 hPa
能見度: 16.1公里
少量云层高于25000英尺

METAR: KTRI 171953Z 23004KT 10SM FEW250 16/01 A2994 RMK AO2 SLP128 T01560011

时间: 15:12 (20:12 UTC)

预报

该预报发布于2小时和37分钟前的17:35 UTC
预报有效从17日的 18点(UTC)到 18日的 18点(UTC)
风速节,风向
能見度: 10公里
散云层高于20000英尺
从 18日的 0600点(UTC)
风速节,风向
能見度: 10公里
多云层高于10000英尺
从 18日的 1100点(UTC)
风速节,风向
能見度: 10公里
多云层高于3500英尺
从 18日的 1600点(UTC)
风速6节,风向西转西南
能見度: 10公里
多云层高于8000英尺

TAF: KTRI 171735Z 1718/1818 00000KT P6SM SCT200 FM180600 00000KT P6SM BKN100 FM181100 00000KT P6SM BKN035 FM181600 25006KT P6SM BKN080

超过4000个机场的气象观测和天气预报(METAR&TAF报告)。

可查询的气象台以黄色和红色小点在地图上表示。

将鼠标移到小点上方,可查看气象台名称。

然后点击查看天气观测和预报。

如需切换地图:点击带黑十字的绿色按钮放大地图;点击带横线的绿色按钮缩小地图;或者点击绿色箭头查看邻近地区的地图。


METAR-TAF: